createdAt,value
2022-09-15T00:00:04.991Z,98751.50
2022-09-15T00:02:32.381Z,98757.56
2022-09-15T00:04:59.911Z,98749.06
2022-09-15T00:07:27.297Z,98749.44
2022-09-15T00:09:54.972Z,98745.06
2022-09-15T00:12:23.820Z,98750.63
2022-09-15T00:14:51.199Z,98746.59
2022-09-15T00:17:18.578Z,98747.97
2022-09-15T00:19:46.070Z,98736.41
2022-09-15T00:22:13.506Z,98746.19
2022-09-15T00:24:40.904Z,98745.44
2022-09-15T00:27:08.798Z,98750.19
2022-09-15T00:29:37.661Z,98747.75
2022-09-15T00:32:05.729Z,98745.56
2022-09-15T00:34:33.151Z,98743.75
2022-09-15T00:37:00.683Z,98737.63
2022-09-15T00:39:28.720Z,98738.06
2022-09-15T00:41:56.180Z,98739.50
2022-09-15T00:44:54.932Z,98740.34
2022-09-15T00:47:27.329Z,98742.03
2022-09-15T00:50:00.205Z,98739.97
2022-09-15T00:52:32.393Z,98736.38
2022-09-15T00:55:06.672Z,98743.28
2022-09-15T00:57:37.593Z,98740.94
2022-09-15T01:00:09.837Z,98736.84
2022-09-15T01:02:39.061Z,98735.53
2022-09-15T01:05:11.002Z,98730.09
2022-09-15T01:07:42.001Z,98730.19
2022-09-15T01:10:14.086Z,98729.34
2022-09-15T01:12:42.146Z,98733.72
2022-09-15T01:15:11.106Z,98735.84
2022-09-15T01:17:50.141Z,98731.59
2022-09-15T01:20:45.175Z,98733.31
2022-09-15T01:23:39.279Z,98732.94
2022-09-15T01:26:31.253Z,98731.84
2022-09-15T01:29:31.123Z,98730.94
2022-09-15T01:32:03.575Z,98723.28
2022-09-15T01:34:37.326Z,98720.56
2022-09-15T01:37:09.888Z,98728.50
2022-09-15T01:39:43.167Z,98727.47
2022-09-15T01:42:16.035Z,98728.09
2022-09-15T01:44:49.036Z,98720.22
2022-09-15T01:47:20.947Z,98726.72
2022-09-15T01:49:51.887Z,98719.28
2022-09-15T01:52:22.614Z,98716.59
2022-09-15T01:54:55.509Z,98718.09
2022-09-15T01:57:23.435Z,98716.22
2022-09-15T01:59:55.356Z,98716.22
2022-09-15T02:02:27.536Z,98721.75
2022-09-15T02:05:00.635Z,98723.44
2022-09-15T02:07:36.372Z,98715.06
2022-09-15T02:10:10.769Z,98722.00
2022-09-15T02:12:45.851Z,98704.63
2022-09-15T02:15:21.495Z,98719.50
2022-09-15T02:17:52.140Z,98703.69
2022-09-15T02:20:25.388Z,98708.34
2022-09-15T02:22:56.810Z,98705.34
2022-09-15T02:25:28.777Z,98699.97
2022-09-15T02:28:03.187Z,98697.81
2022-09-15T02:30:35.237Z,98706.94
2022-09-15T02:33:06.554Z,98694.34
2022-09-15T02:35:36.468Z,98687.63
2022-09-15T02:38:07.616Z,98696.63
2022-09-15T02:40:36.352Z,98694.28
2022-09-15T02:43:04.267Z,98698.16
2022-09-15T02:45:33.544Z,98696.50
2022-09-15T02:48:00.982Z,98698.72
2022-09-15T02:50:28.430Z,98697.13
2022-09-15T02:52:56.109Z,98698.34
2022-09-15T02:55:25.165Z,98695.56
2022-09-15T02:57:52.491Z,98692.88
2022-09-15T03:00:20.041Z,98699.03
2022-09-15T03:02:51.159Z,98701.41
2022-09-15T03:05:21.005Z,98704.41
2022-09-15T03:07:48.518Z,98705.13
2022-09-15T03:10:15.992Z,98706.13
2022-09-15T03:12:45.223Z,98696.41
2022-09-15T03:15:14.457Z,98696.50
2022-09-15T03:17:43.690Z,98700.34
2022-09-15T03:20:15.598Z,98695.53
2022-09-15T03:22:43.343Z,98696.59
2022-09-15T03:25:11.023Z,98699.19
2022-09-15T03:27:38.811Z,98700.56
2022-09-15T03:30:07.659Z,98688.81
2022-09-15T03:32:35.913Z,98692.91
2022-09-15T03:35:03.739Z,98701.59
2022-09-15T03:37:33.211Z,98694.44
2022-09-15T03:40:01.325Z,98698.69
2022-09-15T03:42:28.699Z,98698.13
2022-09-15T03:44:56.085Z,98703.16
2022-09-15T03:47:23.458Z,98701.25
2022-09-15T03:49:50.880Z,98702.75
2022-09-15T03:52:18.437Z,98702.75
2022-09-15T03:54:48.535Z,98698.66
2022-09-15T03:57:15.963Z,98699.31
2022-09-15T03:59:43.500Z,98693.63
2022-09-15T04:02:10.942Z,98699.66
2022-09-15T04:04:38.385Z,98694.47
2022-09-15T04:07:05.911Z,98704.88
2022-09-15T04:09:33.335Z,98708.44
2022-09-15T04:12:02.693Z,98697.66
2022-09-15T04:14:30.135Z,98695.81
2022-09-15T04:16:57.462Z,98694.38
2022-09-15T04:19:24.973Z,98692.13
2022-09-15T04:21:52.381Z,98687.09
2022-09-15T04:24:19.792Z,98685.63
2022-09-15T04:26:47.301Z,98687.72
2022-09-15T04:29:16.493Z,98686.47
2022-09-15T04:31:43.992Z,98683.38
2022-09-15T04:34:11.768Z,98686.97
2022-09-15T04:36:39.286Z,98675.94
2022-09-15T04:39:06.680Z,98681.56
2022-09-15T04:41:34.286Z,98676.56
2022-09-15T04:44:02.194Z,98672.03
2022-09-15T04:46:31.188Z,98680.72
2022-09-15T04:48:58.872Z,98664.13
2022-09-15T04:51:26.408Z,98668.25
2022-09-15T04:53:54.198Z,98674.06
2022-09-15T04:56:23.903Z,98677.25
2022-09-15T04:58:53.320Z,98664.66
2022-09-15T05:01:23.360Z,98669.16
2022-09-15T05:03:52.604Z,98670.25
2022-09-15T05:06:21.638Z,98657.88
2022-09-15T05:08:49.851Z,98658.56
2022-09-15T05:11:18.360Z,98660.50
2022-09-15T05:13:46.370Z,98659.31
2022-09-15T05:16:16.258Z,98659.88
2022-09-15T05:18:45.091Z,98656.84
2022-09-15T05:21:15.708Z,98652.97
2022-09-15T05:23:43.878Z,98654.84
2022-09-15T05:26:13.508Z,98648.41
2022-09-15T05:28:41.275Z,98652.91
2022-09-15T05:31:10.671Z,98660.13
2022-09-15T05:33:38.539Z,98654.88
2022-09-15T05:36:06.539Z,98657.59
2022-09-15T05:38:35.418Z,98653.81
2022-09-15T05:41:03.803Z,98651.75
2022-09-15T05:43:31.772Z,98648.47
2022-09-15T05:45:59.195Z,98641.75
2022-09-15T05:48:27.012Z,98648.88
2022-09-15T05:50:55.991Z,98640.22
2022-09-15T05:53:24.059Z,98638.56
2022-09-15T05:55:56.601Z,98638.59
2022-09-15T05:58:24.599Z,98640.69
2022-09-15T06:00:52.430Z,98635.69
2022-09-15T06:03:20.635Z,98640.00
2022-09-15T06:05:48.238Z,98637.75
2022-09-15T06:08:15.820Z,98638.78
2022-09-15T06:10:43.302Z,98638.41
2022-09-15T06:13:12.112Z,98634.06
2022-09-15T06:15:39.578Z,98626.50
2022-09-15T06:18:07.069Z,98629.72
2022-09-15T06:20:35.683Z,98636.94
2022-09-15T06:23:03.228Z,98620.56
2022-09-15T06:25:30.598Z,98624.06
2022-09-15T06:27:58.106Z,98611.16
2022-09-15T06:30:27.126Z,98622.09
2022-09-15T06:32:54.543Z,98617.88
2022-09-15T06:35:21.989Z,98601.81
2022-09-15T06:37:50.385Z,98599.75
2022-09-15T06:40:17.887Z,98607.28
2022-09-15T06:42:45.329Z,98602.53
2022-09-15T06:45:13.004Z,98604.59
2022-09-15T06:47:42.290Z,98598.59
2022-09-15T06:50:10.452Z,98595.47
2022-09-15T06:52:37.881Z,98584.78
2022-09-15T06:55:05.762Z,98593.31
2022-09-15T06:57:34.067Z,98598.47
2022-09-15T07:00:02.466Z,98591.72
2022-09-15T07:02:29.967Z,98577.91
2022-09-15T07:04:59.487Z,98585.38
2022-09-15T07:07:28.116Z,98574.88
2022-09-15T07:09:55.571Z,98581.97
2022-09-15T07:12:23.107Z,98575.69
2022-09-15T07:14:50.697Z,98573.00
2022-09-15T07:17:18.131Z,98568.81
2022-09-15T07:19:45.679Z,98570.94
2022-09-15T07:22:14.656Z,98558.88
2022-09-15T07:24:42.061Z,98564.88
2022-09-15T07:27:09.644Z,98565.72
2022-09-15T07:29:37.898Z,98560.34
2022-09-15T07:32:05.616Z,98562.19
2022-09-15T07:34:33.743Z,98559.47
2022-09-15T07:37:01.141Z,98552.25
2022-09-15T07:39:30.067Z,98553.69
2022-09-15T07:41:57.962Z,98553.47
2022-09-15T07:44:25.528Z,98547.44
2022-09-15T07:46:53.472Z,98553.69
2022-09-15T07:49:20.928Z,98539.19
2022-09-15T07:51:48.319Z,98540.81
2022-09-15T07:54:19.550Z,98543.53
2022-09-15T07:56:51.430Z,98539.78
2022-09-15T07:59:18.937Z,98528.53
2022-09-15T08:01:46.314Z,98525.03
2022-09-15T08:04:13.793Z,98521.13
2022-09-15T08:06:41.288Z,98523.19
2022-09-15T08:09:08.674Z,98510.50
2022-09-15T08:11:36.019Z,98517.81
2022-09-15T08:14:05.035Z,98517.78
2022-09-15T08:16:32.488Z,98504.47
2022-09-15T08:19:00.654Z,98507.22
2022-09-15T08:21:28.619Z,98508.22
2022-09-15T08:23:58.047Z,98510.53
2022-09-15T08:26:26.431Z,98511.75
2022-09-15T08:28:54.016Z,98511.16
2022-09-15T08:31:23.349Z,98508.25
2022-09-15T08:33:52.530Z,98503.66
2022-09-15T08:36:20.332Z,98512.19
2022-09-15T08:38:48.298Z,98506.59
2022-09-15T08:41:20.208Z,98507.63
2022-09-15T08:43:54.950Z,98503.03
2022-09-15T08:46:31.634Z,98495.34
2022-09-15T08:49:05.456Z,98488.91
2022-09-15T08:51:41.899Z,98501.19
2022-09-15T08:54:16.781Z,98489.75
2022-09-15T08:56:44.295Z,98498.47
2022-09-15T08:59:14.895Z,98486.41
2022-09-15T09:02:13.630Z,98496.44
2022-09-15T09:05:02.751Z,98485.56
2022-09-15T09:18:59.024Z,98473.72
2022-09-15T09:21:31.694Z,98477.66
2022-09-15T09:24:06.615Z,98471.03
2022-09-15T09:26:37.114Z,98458.53
2022-09-15T09:29:12.583Z,98458.34
2022-09-15T09:45:14.877Z,98452.94
2022-09-15T09:47:43.444Z,98445.84
2022-09-15T09:50:36.142Z,98437.75
2022-09-15T09:53:22.184Z,98436.28
2022-09-15T09:55:49.682Z,98438.38
2022-09-15T09:58:20.341Z,98445.22
2022-09-15T10:00:49.546Z,98434.00
2022-09-15T10:03:19.036Z,98436.28
2022-09-15T10:06:01.605Z,98422.16
2022-09-15T10:08:29.464Z,98423.63
2022-09-15T10:11:05.706Z,98426.94
2022-09-15T10:13:35.242Z,98426.72
2022-09-15T10:16:06.863Z,98434.03
2022-09-15T10:18:37.352Z,98430.25
2022-09-15T10:21:08.484Z,98436.91
2022-09-15T10:23:37.140Z,98427.38
2022-09-15T10:26:30.886Z,98431.50
2022-09-15T10:29:14.250Z,98430.47
2022-09-15T10:31:44.534Z,98429.41
2022-09-15T10:34:26.749Z,98431.47
2022-09-15T10:37:01.204Z,98420.25
2022-09-15T10:39:37.475Z,98413.63
2022-09-15T10:42:12.187Z,98415.50
2022-09-15T10:44:47.972Z,98417.16
2022-09-15T10:47:27.598Z,98417.56
2022-09-15T10:50:09.446Z,98422.16
2022-09-15T10:52:49.912Z,98412.78
2022-09-15T10:55:48.525Z,98412.78
2022-09-15T10:58:29.704Z,98412.16
2022-09-15T11:01:09.622Z,98419.03
2022-09-15T11:03:54.494Z,98416.97
2022-09-15T11:06:28.786Z,98407.81
2022-09-15T11:09:13.763Z,98422.34
2022-09-15T11:11:52.562Z,98411.75
2022-09-15T11:14:38.664Z,98411.94
2022-09-15T11:17:19.133Z,98404.28
2022-09-15T11:20:03.678Z,98405.09
2022-09-15T11:22:34.931Z,98402.41
2022-09-15T11:25:06.472Z,98403.75
2022-09-15T11:27:41.404Z,98404.06
2022-09-15T11:30:17.390Z,98405.03
2022-09-15T11:32:52.932Z,98403.84
2022-09-15T11:35:33.908Z,98394.91
2022-09-15T11:38:13.228Z,98401.97
2022-09-15T11:40:48.045Z,98400.34
2022-09-15T11:43:21.775Z,98401.78
2022-09-15T11:45:54.865Z,98405.09
2022-09-15T11:48:29.423Z,98395.31
2022-09-15T11:51:02.465Z,98404.91
2022-09-15T11:53:35.890Z,98403.63
2022-09-15T11:56:13.419Z,98398.84
2022-09-15T11:58:57.098Z,98395.34
2022-09-15T12:01:30.052Z,98392.63
2022-09-15T12:04:00.574Z,98387.63
2022-09-15T12:06:34.598Z,98390.97
2022-09-15T12:09:04.219Z,98386.38
2022-09-15T12:11:34.896Z,98391.19
2022-09-15T12:14:04.078Z,98385.75
2022-09-15T12:16:33.747Z,98386.81
2022-09-15T12:19:09.449Z,98391.53
2022-09-15T12:21:46.899Z,98381.22
2022-09-15T12:24:23.547Z,98384.09
2022-09-15T12:26:51.653Z,98378.50
2022-09-15T12:29:39.459Z,98378.16
2022-09-15T12:32:23.576Z,98385.31
2022-09-15T12:35:02.193Z,98372.84
2022-09-15T12:37:40.261Z,98373.41
2022-09-15T12:40:26.498Z,98370.31
2022-09-15T12:42:54.676Z,98380.13
2022-09-15T12:45:25.524Z,98376.53
2022-09-15T12:47:56.140Z,98374.13
2022-09-15T12:50:27.632Z,98363.75
2022-09-15T12:52:59.211Z,98372.25
2022-09-15T12:55:29.752Z,98366.25
2022-09-15T12:57:59.583Z,98375.59
2022-09-15T13:00:36.124Z,98371.84
2022-09-15T13:03:06.087Z,98364.13
2022-09-15T13:06:06.265Z,98366.63
2022-09-15T13:08:53.351Z,98365.59
2022-09-15T13:11:28.356Z,98361.03
2022-09-15T13:14:09.173Z,98365.00
2022-09-15T13:16:45.970Z,98358.31
2022-09-15T13:19:19.495Z,98363.88
2022-09-15T13:21:55.844Z,98365.31
2022-09-15T13:24:29.957Z,98357.03
2022-09-15T13:26:58.342Z,98358.50
2022-09-15T13:29:28.308Z,98359.50
2022-09-15T13:32:08.808Z,98355.47
2022-09-15T13:35:07.168Z,98366.09
2022-09-15T13:38:12.188Z,98361.41
2022-09-15T13:41:14.965Z,98359.44
2022-09-15T13:44:05.883Z,98363.63
2022-09-15T13:46:46.791Z,98356.75
2022-09-15T13:49:31.599Z,98358.63
2022-09-15T13:52:07.488Z,98356.13
2022-09-15T13:54:34.929Z,98349.66
2022-09-15T13:57:04.244Z,98359.44
2022-09-15T13:59:33.500Z,98365.25
2022-09-15T14:02:01.441Z,98357.34
2022-09-15T14:04:31.892Z,98360.25
2022-09-15T14:07:01.879Z,98368.84
2022-09-15T14:09:35.537Z,98361.59
2022-09-15T14:12:10.511Z,98363.56
2022-09-15T14:14:41.199Z,98360.22
2022-09-15T14:17:19.185Z,98360.78
2022-09-15T14:19:49.357Z,98371.44
2022-09-15T14:22:24.894Z,98367.22
2022-09-15T14:24:53.571Z,98381.41
2022-09-15T14:27:24.754Z,98374.94
2022-09-15T14:29:54.140Z,98371.63
2022-09-15T14:32:22.060Z,98377.59
2022-09-15T14:34:49.617Z,98374.53
2022-09-15T14:37:21.847Z,98379.47
2022-09-15T14:39:53.323Z,98378.81
2022-09-15T14:42:24.042Z,98379.44
2022-09-15T14:47:40.420Z,98374.50
2022-09-15T14:50:12.298Z,98370.34
2022-09-15T14:52:41.811Z,98379.25
2022-09-15T14:55:15.206Z,98380.28
2022-09-15T14:57:50.642Z,98381.56
2022-09-15T15:00:21.879Z,98379.47
2022-09-15T15:03:00.842Z,98380.09
2022-09-15T15:05:32.015Z,98379.91
2022-09-15T15:08:03.204Z,98377.84
2022-09-15T15:10:35.469Z,98381.13
2022-09-15T15:13:09.169Z,98376.81
2022-09-15T15:15:38.314Z,98380.09
2022-09-15T15:18:30.998Z,98370.16
2022-09-15T15:20:59.561Z,98366.66
2022-09-15T15:23:27.716Z,98366.22
2022-09-15T15:26:25.380Z,98364.94
2022-09-15T15:28:54.311Z,98367.81
2022-09-15T15:31:24.899Z,98368.88
2022-09-15T15:33:54.145Z,98363.25
2022-09-15T15:36:23.605Z,98365.13
2022-09-15T15:38:53.551Z,98359.53
2022-09-15T15:41:23.519Z,98356.59
2022-09-15T15:44:04.269Z,98359.06
2022-09-15T15:46:53.308Z,98357.63
2022-09-15T15:49:24.592Z,98345.78
2022-09-15T15:51:53.800Z,98351.22
2022-09-15T15:54:21.476Z,98348.13
2022-09-15T15:56:49.073Z,98358.47
2022-09-15T15:59:18.222Z,98349.94
2022-09-15T16:01:49.711Z,98343.06
2022-09-15T16:04:17.230Z,98350.13
2022-09-15T16:06:45.234Z,98347.00
2022-09-15T16:09:14.894Z,98340.34
2022-09-15T16:11:42.704Z,98347.81
2022-09-15T16:14:12.379Z,98342.34
2022-09-15T16:16:41.802Z,98336.75
2022-09-15T16:19:09.311Z,98337.81
2022-09-15T16:21:40.772Z,98338.97
2022-09-15T16:24:13.119Z,98333.38
2022-09-15T16:26:41.154Z,98336.69
2022-09-15T16:29:08.643Z,98328.16
2022-09-15T16:31:36.706Z,98327.09
2022-09-15T16:34:05.654Z,98329.41
2022-09-15T16:36:35.407Z,98334.38
2022-09-15T16:39:02.617Z,98328.97
2022-09-15T16:41:30.204Z,98327.91
2022-09-15T16:43:57.693Z,98323.94
2022-09-15T16:46:25.301Z,98325.59
2022-09-15T16:48:52.840Z,98325.81
2022-09-15T16:51:29.542Z,98318.09
2022-09-15T16:53:58.930Z,98323.09
2022-09-15T16:56:26.543Z,98319.34
2022-09-15T16:58:59.604Z,98313.94
2022-09-15T17:01:28.326Z,98317.69
2022-09-15T17:03:55.750Z,98322.66
2022-09-15T17:06:24.671Z,98312.28
2022-09-15T17:08:52.224Z,98320.16
2022-09-15T17:11:20.713Z,98318.13
2022-09-15T17:13:48.153Z,98304.84
2022-09-15T17:16:18.393Z,98311.63
2022-09-15T17:18:45.841Z,98311.09
2022-09-15T17:21:14.042Z,98311.50
2022-09-15T17:23:45.217Z,98305.69
2022-09-15T17:26:14.502Z,98306.50
2022-09-15T17:28:42.067Z,98309.25
2022-09-15T17:31:14.981Z,98309.06
2022-09-15T17:33:42.786Z,98306.53
2022-09-15T17:36:10.820Z,98303.41
2022-09-15T17:38:38.688Z,98307.97
2022-09-15T17:41:08.060Z,98305.47
2022-09-15T17:43:35.464Z,98303.59
2022-09-15T17:46:03.168Z,98302.16
2022-09-15T17:48:30.713Z,98304.81
2022-09-15T17:50:58.807Z,98305.69
2022-09-15T17:53:27.475Z,98300.69
2022-09-15T17:55:56.203Z,98302.38
2022-09-15T17:58:25.597Z,98298.47
2022-09-15T18:00:53.443Z,98295.56
2022-09-15T18:03:24.648Z,98302.63
2022-09-15T18:05:52.353Z,98296.16
2022-09-15T18:08:19.811Z,98291.59
2022-09-15T18:10:47.808Z,98293.25
2022-09-15T18:13:17.122Z,98294.31
2022-09-15T18:15:46.792Z,98295.78
2022-09-15T18:18:15.657Z,98292.44
2022-09-15T18:20:43.781Z,98289.13
2022-09-15T18:23:14.257Z,98284.13
2022-09-15T18:25:43.293Z,98284.53
2022-09-15T18:28:11.245Z,98293.88
2022-09-15T18:30:41.859Z,98289.91
2022-09-15T18:33:14.568Z,98296.13
2022-09-15T18:35:42.605Z,98289.47
2022-09-15T18:38:10.680Z,98294.38
2022-09-15T18:40:38.709Z,98289.84
2022-09-15T18:43:06.148Z,98295.22
2022-09-15T18:45:33.542Z,98288.81
2022-09-15T18:48:01.070Z,98284.84
2022-09-15T18:50:30.011Z,98292.31
2022-09-15T18:52:57.968Z,98281.94
2022-09-15T18:55:25.385Z,98287.16
2022-09-15T18:57:52.920Z,98286.25
2022-09-15T19:00:24.091Z,98286.09
2022-09-15T19:02:56.953Z,98285.63
2022-09-15T19:05:24.809Z,98285.88
2022-09-15T19:07:53.910Z,98276.72
2022-09-15T19:10:21.840Z,98276.72
2022-09-15T19:12:49.351Z,98280.84
2022-09-15T19:15:17.348Z,98279.16
2022-09-15T19:17:45.343Z,98284.41
2022-09-15T19:20:14.896Z,98281.69
2022-09-15T19:22:42.560Z,98279.00
2022-09-15T19:25:11.884Z,98272.78
2022-09-15T19:27:39.897Z,98276.50
2022-09-15T19:30:08.971Z,98273.56
2022-09-15T19:32:36.404Z,98268.31
2022-09-15T19:35:04.168Z,98268.59
2022-09-15T19:37:31.580Z,98267.50
2022-09-15T19:39:59.055Z,98260.03
2022-09-15T19:42:28.057Z,98266.91
2022-09-15T19:44:55.443Z,98271.69
2022-09-15T19:47:22.869Z,98262.34
2022-09-15T19:49:51.803Z,98264.59
2022-09-15T19:52:19.314Z,98254.44
2022-09-15T19:54:46.763Z,98254.38
2022-09-15T19:57:14.286Z,98249.81
2022-09-15T19:59:43.313Z,98253.53
2022-09-15T20:02:11.370Z,98251.69
2022-09-15T20:04:39.028Z,98247.31
2022-09-15T20:07:07.011Z,98243.53
2022-09-15T20:09:34.584Z,98245.91
2022-09-15T20:12:02.388Z,98246.94
2022-09-15T20:14:30.179Z,98246.94
2022-09-15T20:17:01.170Z,98238.66
2022-09-15T20:19:29.708Z,98233.19
2022-09-15T20:21:57.652Z,98239.19
2022-09-15T20:24:25.296Z,98229.00
2022-09-15T20:26:52.981Z,98229.22
2022-09-15T20:29:20.584Z,98230.72
2022-09-15T20:31:48.285Z,98224.63
2022-09-15T20:34:17.503Z,98225.31
2022-09-15T20:36:45.440Z,98228.16
2022-09-15T20:39:14.913Z,98224.25
2022-09-15T20:41:43.270Z,98231.13
2022-09-15T20:44:10.714Z,98221.31
2022-09-15T20:46:38.343Z,98228.25
2022-09-15T20:49:05.911Z,98221.56
2022-09-15T20:51:34.966Z,98226.56
2022-09-15T20:54:03.227Z,98216.13
2022-09-15T20:56:32.802Z,98220.50
2022-09-15T20:59:00.684Z,98210.75
2022-09-15T21:01:30.082Z,98213.19
2022-09-15T21:03:57.645Z,98204.25
2022-09-15T21:06:26.891Z,98208.22
2022-09-15T21:08:56.516Z,98201.53
2022-09-15T21:11:25.448Z,98207.81
2022-09-15T21:13:52.943Z,98204.50
2022-09-15T21:16:47.626Z,98204.66
2022-09-15T21:19:59.727Z,98199.25
2022-09-15T21:23:48.594Z,98197.22
2022-09-15T21:26:43.736Z,98201.97
2022-09-15T21:29:34.601Z,98197.22
2022-09-15T21:32:33.220Z,98195.78
2022-09-15T21:35:19.337Z,98189.53
2022-09-15T21:38:02.377Z,98186.63
2022-09-15T21:40:53.287Z,98194.34
2022-09-15T21:44:11.035Z,98190.97
2022-09-15T21:49:41.292Z,98183.84
2022-09-15T21:52:32.015Z,98180.31
2022-09-15T21:55:08.932Z,98182.00
2022-09-15T21:58:18.871Z,98186.34
2022-09-15T22:04:10.660Z,98183.66
2022-09-15T22:07:23.925Z,98188.16
2022-09-15T22:16:06.570Z,98167.69
2022-09-15T22:18:57.752Z,98172.50
2022-09-15T22:24:57.320Z,98177.66
2022-09-15T22:27:56.126Z,98174.41
2022-09-15T22:30:39.267Z,98173.94
2022-09-15T22:33:58.371Z,98172.31
2022-09-15T22:36:36.650Z,98170.91
2022-09-15T22:39:19.931Z,98158.78
2022-09-15T22:41:47.355Z,98168.16
2022-09-15T22:44:19.022Z,98165.84
2022-09-15T22:46:46.458Z,98166.22
2022-09-15T22:49:15.286Z,98157.28
2022-09-15T22:51:42.740Z,98164.19
2022-09-15T22:54:10.173Z,98157.94
2022-09-15T22:56:38.109Z,98156.66
2022-09-15T22:59:05.536Z,98160.81
2022-09-15T23:01:32.898Z,98157.56
2022-09-15T23:04:02.143Z,98161.03
2022-09-15T23:06:33.147Z,98158.56
2022-09-15T23:09:03.895Z,98151.50
2022-09-15T23:11:33.354Z,98162.31
2022-09-15T23:14:01.449Z,98153.31
2022-09-15T23:16:30.755Z,98152.91
2022-09-15T23:18:58.629Z,98148.72
2022-09-15T23:21:26.166Z,98147.09
2022-09-15T23:23:55.471Z,98146.03
2022-09-15T23:26:24.477Z,98149.41
2022-09-15T23:28:52.854Z,98141.47
2022-09-15T23:31:20.652Z,98147.75
2022-09-15T23:33:48.561Z,98146.28
2022-09-15T23:36:18.008Z,98148.78
2022-09-15T23:38:46.431Z,98146.69
2022-09-15T23:41:16.046Z,98144.63
2022-09-15T23:43:43.782Z,98145.25
2022-09-15T23:46:11.359Z,98148.16
2022-09-15T23:48:38.989Z,98145.44
2022-09-15T23:51:06.858Z,98147.75
2022-09-15T23:53:35.031Z,98143.59
2022-09-15T23:56:02.964Z,98143.78
2022-09-15T23:58:31.833Z,98141.94
